.
WxDataArchive / Data Records for 2006-07-24
2006-07-23 July 2006 2006-07-25

Data Records for Monday, 24 July 2006

Time	Temp	Chill	HIndex	Humid	Dewpt	 Wind 	HiWind	WindDir	Rain 	Barom 
-----	----	-----	------	-----	-----	------	------	-------	-----	----- 
00:00	66.8	66.8	66.8	78	59.7	0	0	---	0.00	29.938 
00:05	66.6	66.6	66.6	79	59.9	0	0	---	0.00	29.938 
00:10	66.4	66.4	66.4	79	59.7	0	0	---	0.00	29.938 
00:15	66.3	66.3	66.3	79	59.6	0	0	---	0.00	29.941 
00:20	66.1	66.1	66.1	80	59.7	0	0	---	0.00	29.941 
00:25	66.0	66.0	66.0	81	60.0	0	0	---	0.00	29.941 
00:30	65.8	65.8	65.8	81	59.8	0	0	---	0.00	29.943 
00:35	65.6	65.6	65.6	81	59.6	0	0	---	0.00	29.943 
00:40	65.5	65.5	65.5	82	59.9	0	0	---	0.00	29.943 
00:45	65.2	65.2	65.2	83	59.9	0	0	---	0.00	29.946 
00:50	65.0	65.0	65.0	83	59.7	0	0	---	0.00	29.946 
00:55	65.0	65.0	65.0	83	59.7	0	0	---	0.00	29.946 
01:00	64.8	64.8	64.8	84	59.8	0	0	---	0.00	29.950 
01:05	64.7	64.7	64.7	84	59.7	0	0	---	0.00	29.950 
01:10	64.5	64.5	64.5	84	59.6	0	0	---	0.00	29.950 
01:15	64.3	64.3	64.3	85	59.7	0	0	---	0.00	29.951 
01:20	64.2	64.2	64.2	85	59.6	0	0	---	0.00	29.951 
01:25	64.0	64.0	64.0	85	59.4	0	0	---	0.00	29.951 
01:30	63.9	63.9	63.9	86	59.6	0	0	---	0.00	29.954 
01:35	63.7	63.7	63.7	86	59.4	0	0	---	0.00	29.954 
01:40	63.7	63.7	63.7	87	59.8	0	0	---	0.00	29.954 
01:45	63.5	63.5	63.5	87	59.6	0	0	---	0.00	29.956 
01:50	63.4	63.4	63.4	87	59.5	0	0	---	0.00	29.956 
01:55	63.2	63.2	63.2	88	59.6	0	0	---	0.00	29.956 
02:00	63.2	63.2	63.2	88	59.6	0	0	---	0.00	29.958 
02:05	63.1	63.1	63.1	89	59.8	0	0	---	0.00	29.958 
02:10	62.9	62.9	62.9	89	59.6	0	0	---	0.00	29.958 
02:15	62.9	62.9	62.9	89	59.6	0	0	---	0.00	29.949 
02:20	62.7	62.7	62.7	90	59.7	0	0	---	0.00	29.949 
02:25	62.6	62.6	62.6	90	59.6	0	0	---	0.00	29.949 
02:30	62.6	62.6	62.6	90	59.6	0	0	---	0.00	29.947 
02:35	62.4	62.4	62.4	90	59.4	0	0	---	0.00	29.947 
02:40	62.4	62.4	62.4	90	59.4	0	0	---	0.00	29.947 
02:45	62.4	62.4	62.4	91	59.7	0	0	---	0.00	29.947 
02:50	62.3	62.3	62.3	91	59.6	0	0	---	0.00	29.947 
02:55	62.3	62.3	62.3	91	59.6	0	0	---	0.00	29.947 
03:00	62.1	62.1	62.1	91	59.4	0	0	---	0.00	29.946 
03:05	62.1	62.1	62.1	92	59.7	0	0	---	0.00	29.946 
03:10	62.1	62.1	62.1	92	59.7	0	0	---	0.00	29.946 
03:15	62.0	62.0	62.0	92	59.6	0	0	---	0.00	29.946 
03:20	61.8	61.8	61.8	92	59.4	0	0	---	0.00	29.946 
03:25	61.8	61.8	61.8	92	59.4	0	0	---	0.00	29.946 
03:30	61.8	61.8	61.8	92	59.4	0	0	---	0.00	29.948 
03:35	61.8	61.8	61.8	92	59.4	0	0	---	0.00	29.948 
03:40	61.6	61.6	61.6	92	59.2	0	0	---	0.00	29.948 
03:45	61.5	61.5	61.5	92	59.2	0	0	---	0.00	29.948 
03:50	61.3	61.3	61.3	92	59.0	0	0	---	0.00	29.948 
03:55	61.3	61.3	61.3	92	59.0	0	0	---	0.00	29.948 
04:00	61.2	61.2	61.2	93	59.2	0	0	---	0.00	29.947 
04:05	61.2	61.2	61.2	93	59.2	0	0	---	0.00	29.947 
04:10	61.2	61.2	61.2	93	59.2	0	0	---	0.00	29.947 
04:15	61.0	61.0	61.0	93	59.0	0	0	---	0.00	29.946 
04:20	61.0	61.0	61.0	93	59.0	0	0	---	0.00	29.946 
04:25	60.9	60.9	60.9	93	58.9	0	0	---	0.00	29.946 
04:30	61.0	61.0	61.0	93	59.0	0	0	---	0.00	29.946 
04:35	61.0	61.0	61.0	94	59.3	0	0	---	0.00	29.946 
04:40	60.9	60.9	60.9	94	59.2	0	0	---	0.00	29.946 
04:45	60.9	60.9	60.9	94	59.2	0	0	---	0.00	29.944 
04:50	60.9	60.9	60.9	94	59.2	0	0	---	0.00	29.944 
04:55	60.9	60.9	60.9	94	59.2	0	0	---	0.00	29.944 
05:00	60.9	60.9	60.9	94	59.2	0	0	---	0.00	29.943 
05:05	60.9	60.9	60.9	94	59.2	0	0	---	0.00	29.943 
05:10	60.7	60.7	60.7	94	59.0	0	0	---	0.00	29.943 
05:15	60.7	60.7	60.7	94	59.0	0	0	---	0.00	29.941 
05:20	60.5	60.5	60.5	94	58.8	0	0	---	0.00	29.941 
05:25	60.4	60.4	60.4	94	58.7	0	0	---	0.00	29.941 
05:30	60.4	60.4	60.4	94	58.7	0	0	---	0.00	29.942 
05:35	60.4	60.4	60.4	94	58.7	0	0	---	0.00	29.942 
05:40	60.2	60.2	60.2	94	58.5	0	0	---	0.00	29.942 
05:45	60.2	60.2	60.2	94	58.5	0	0	---	0.00	29.943 
05:50	60.2	60.2	60.2	94	58.5	0	0	---	0.00	29.943 
05:55	60.1	60.1	60.1	94	58.4	0	0	---	0.00	29.943 
06:00	60.1	60.1	60.1	95	58.7	0	0	---	0.00	29.945 
06:05	60.1	60.1	60.1	95	58.7	0	0	---	0.00	29.945 
06:10	59.9	59.9	59.9	95	58.5	0	0	---	0.00	29.945 
06:15	59.9	59.9	59.9	95	58.5	0	0	---	0.00	29.946 
06:20	59.8	59.8	59.8	95	58.4	0	0	---	0.00	29.946 
06:25	59.6	59.6	59.6	95	58.2	0	0	---	0.00	29.946 
06:30	59.5	59.5	59.5	95	58.1	0	0	---	0.00	29.948 
06:35	59.5	59.5	59.5	95	58.1	0	0	---	0.00	29.948 
06:40	59.3	59.3	59.3	95	57.9	0	0	---	0.00	29.948 
06:45	59.3	59.3	59.3	95	57.9	0	0	---	0.00	29.948 
06:50	59.5	59.5	59.5	95	58.1	0	0	---	0.00	29.948 
06:55	59.6	59.6	59.6	95	58.2	0	0	---	0.00	29.948 
07:00	59.6	59.6	59.6	95	58.2	0	0	---	0.00	29.944 
07:05	59.9	59.9	59.9	95	58.5	0	0	---	0.00	29.944 
07:10	59.9	59.9	59.9	95	58.5	0	0	---	0.00	29.944 
07:15	60.1	60.1	60.1	95	58.7	0	0	---	0.00	29.945 
07:20	60.5	60.5	60.5	96	59.4	0	0	---	0.00	29.945 
07:25	61.0	61.0	61.0	96	59.8	0	0	---	0.00	29.945 
07:30	61.5	61.5	61.5	96	60.3	0	1	292	0.00	29.945 
07:35	62.0	62.0	62.0	96	60.8	0	1	292	0.00	29.945 
07:40	62.4	62.4	62.4	96	61.2	0	1	292	0.00	29.945 
07:45	62.7	62.7	62.7	96	61.5	0	1	292	0.00	29.948 
07:50	63.2	63.2	63.2	95	61.7	0	1	292	0.00	29.948 
07:55	63.9	63.9	63.9	94	62.1	0	1	292	0.00	29.948 
08:00	64.5	64.5	64.5	91	61.8	0	1	292	0.00	29.948 
08:05	65.5	65.5	65.5	88	61.8	0	2	292	0.00	29.948 
08:10	66.3	66.3	66.3	85	61.6	0	2	292	0.00	29.948 
08:15	67.1	67.1	67.1	82	61.4	1	3	270	0.00	29.952 
08:20	67.9	67.9	67.9	81	61.8	0	1	270	0.00	29.952 
08:25	68.6	68.6	68.6	78	61.5	1	2	270	0.00	29.952 
08:30	69.3	69.3	69.3	77	61.8	1	3	248	0.00	29.950 
08:35	69.8	69.8	69.8	75	61.5	1	3	248	0.00	29.950 
08:40	70.4	70.4	70.4	73	61.3	1	3	248	0.00	29.950 
08:45	70.9	70.9	70.9	73	61.8	2	3	248	0.00	29.954 
08:50	71.6	71.6	71.6	72	62.1	1	3	248	0.00	29.954 
08:55	72.3	72.3	72.3	70	62.0	1	2	248	0.00	29.954 
09:00	72.7	72.7	72.7	69	61.9	2	6	248	0.00	29.953 
09:05	73.0	73.0	73.0	70	62.6	1	3	248	0.00	29.953 
09:10	73.9	73.9	73.9	69	63.1	1	3	248	0.00	29.953 
09:15	74.2	74.2	74.2	68	62.9	1	4	248	0.00	29.953 
09:20	74.6	74.6	74.6	67	62.9	1	3	248	0.00	29.953 
09:25	74.7	74.7	74.7	66	62.6	2	5	270	0.00	29.953 
09:30	75.1	75.1	77.1	65	62.5	1	4	248	0.00	29.953 
09:35	75.3	75.3	77.3	65	62.7	2	4	248	0.00	29.953 
09:40	75.4	75.4	77.4	64	62.4	2	5	248	0.00	29.953 
09:45	75.8	75.8	77.8	63	62.3	2	5	270	0.00	29.954 
09:50	76.0	76.0	78.0	62	62.0	2	4	248	0.00	29.954 
09:55	76.1	76.1	78.0	62	62.1	2	5	248	0.00	29.954 
10:00	76.5	76.5	78.4	62	62.5	2	5	270	0.00	29.954 
10:05	77.0	77.0	78.8	61	62.5	2	5	248	0.00	29.954 
10:10	77.4	77.4	79.1	60	62.4	2	4	248	0.00	29.954 
10:15	77.9	77.9	79.5	58	61.9	2	6	248	0.00	29.956 
10:20	77.9	77.9	79.5	59	62.4	3	7	248	0.00	29.956 
10:25	78.3	78.3	79.9	59	62.8	2	5	270	0.00	29.956 
10:30	78.6	78.6	80.1	58	62.6	3	6	248	0.00	29.956 
10:35	78.8	78.8	80.3	57	62.3	2	5	270	0.00	29.956 
10:40	79.0	79.0	80.4	56	61.9	3	7	270	0.00	29.956 
10:45	79.6	79.6	81.2	58	63.5	2	6	270	0.00	29.953 
10:50	79.6	79.6	80.9	55	62.0	3	9	270	0.00	29.953 
10:55	79.6	79.6	80.8	54	61.5	3	7	270	0.00	29.953 
11:00	79.6	79.6	80.8	54	61.5	3	7	248	0.00	29.949 
11:05	79.9	79.9	81.2	55	62.3	3	5	248	0.00	29.949 
11:10	80.3	80.3	81.5	54	62.1	3	6	248	0.00	29.949 
11:15	80.9	80.9	82.1	54	62.7	2	5	270	0.00	29.945 
11:20	81.1	81.1	82.2	53	62.3	2	6	248	0.00	29.945 
11:25	81.1	81.1	82.3	54	62.9	3	6	270	0.00	29.945 
11:30	81.1	81.1	82.2	53	62.3	3	9	270	0.00	29.942 
11:35	81.1	81.1	82.3	54	62.9	2	5	270	0.00	29.942 
11:40	81.4	81.4	82.8	55	63.7	3	6	270	0.00	29.942 
11:45	81.6	81.6	83.2	56	64.4	2	6	248	0.00	29.940 
11:50	81.8	81.8	83.0	53	63.0	3	9	270	0.00	29.940 
11:55	82.0	82.0	83.4	54	63.7	2	5	270	0.00	29.940 
12:00	82.0	82.0	83.1	52	62.6	3	11	270	0.00	29.940 
12:05	81.8	81.8	83.0	53	63.0	4	10	270	0.00	29.940 
12:10	81.8	81.8	83.0	53	63.0	3	10	270	0.00	29.940 
12:15	82.0	82.0	83.2	53	63.2	3	6	248	0.00	29.939 
12:20	82.4	82.4	83.5	52	63.0	2	6	270	0.00	29.939 
12:25	82.8	82.8	84.4	54	64.4	2	7	248	0.00	29.939 
12:30	83.4	83.4	84.6	51	63.3	2	6	270	0.00	29.934 
12:35	83.8	83.8	84.9	50	63.1	2	5	248	0.00	29.934 
12:40	83.6	83.6	84.4	49	62.4	3	6	270	0.00	29.934 
12:45	83.2	83.2	84.3	51	63.2	3	9	248	0.00	29.925 
12:50	82.8	82.8	84.2	53	63.9	3	5	270	0.00	29.925 
12:55	83.0	83.0	84.3	52	63.5	3	7	270	0.00	29.925 
13:00	83.2	83.2	84.7	53	64.3	3	7	270	0.00	29.924 
13:05	83.6	83.6	84.8	51	63.5	4	6	270	0.00	29.924 
13:10	83.6	83.6	84.8	51	63.5	3	7	270	0.00	29.924 
13:15	83.6	83.6	85.0	52	64.1	3	9	270	0.00	29.920 
13:20	84.1	84.1	85.7	52	64.5	2	6	248	0.00	29.920 
13:25	84.7	84.7	86.0	50	64.0	3	5	270	0.00	29.920 
13:30	84.3	84.3	85.7	51	64.2	3	7	270	0.00	29.912 
13:35	84.5	84.5	85.8	50	63.8	3	7	270	0.00	29.912 
13:40	84.1	84.1	85.5	51	64.0	4	9	248	0.00	29.912 
13:45	84.3	84.3	85.3	49	63.0	3	6	270	0.00	29.909 
13:50	84.3	84.3	85.1	48	62.4	3	7	270	0.00	29.909 
13:55	84.5	84.5	85.6	49	63.2	3	7	270	0.00	29.909 
14:00	84.7	84.7	86.0	50	64.0	3	10	270	0.00	29.905 
14:05	85.1	85.1	86.1	48	63.2	3	5	270	0.00	29.905 
14:10	85.1	85.1	86.6	50	64.3	3	5	270	0.00	29.905 
14:15	84.9	84.9	86.1	49	63.6	4	9	270	0.00	29.905 
14:20	84.7	84.7	86.0	50	64.0	3	6	248	0.00	29.905 
14:25	84.7	84.7	85.6	48	62.8	4	8	270	0.00	29.905 
14:30	84.9	84.9	85.8	48	63.0	3	7	270	0.00	29.900 
14:35	85.1	85.1	86.1	48	63.2	3	7	248	0.00	29.900 
14:40	85.3	85.3	86.4	48	63.4	4	11	270	0.00	29.900 
14:45	85.9	85.9	87.5	49	64.5	3	7	248	0.00	29.894 
14:50	86.3	86.3	87.2	46	63.0	3	6	270	0.00	29.894 
14:55	85.7	85.7	86.9	48	63.7	3	9	248	0.00	29.894 
15:00	85.3	85.3	86.4	48	63.4	3	13	270	0.00	29.896 
15:05	85.1	85.1	86.4	49	63.8	3	9	270	0.00	29.896 
15:10	84.7	84.7	85.8	49	63.4	3	9	270	0.00	29.896 
15:15	84.3	84.3	85.3	49	63.0	5	12	270	0.00	29.896 
15:20	84.1	84.1	85.3	50	63.4	4	11	270	0.00	29.896 
15:25	84.5	84.5	85.6	49	63.2	4	11	270	0.00	29.896 
15:30	84.9	84.9	85.6	47	62.4	4	10	270	0.00	29.891 
15:35	85.5	85.5	86.4	47	62.9	4	11	248	0.00	29.891 
15:40	85.3	85.3	86.6	49	63.9	4	10	248	0.00	29.891 
15:45	84.7	84.7	85.8	49	63.4	4	8	270	0.00	29.883 
15:50	85.1	85.1	86.4	49	63.8	3	5	270	0.00	29.883 
15:55	85.5	85.5	86.4	47	62.9	3	10	248	0.00	29.883 
16:00	85.3	85.3	86.4	48	63.4	4	9	248	0.00	29.881 
16:05	84.7	84.7	85.8	49	63.4	3	7	270	0.00	29.881 
16:10	85.1	85.1	86.1	48	63.2	3	11	248	0.00	29.881 
16:15	85.3	85.3	86.6	49	63.9	4	7	270	0.00	29.878 
16:20	85.5	85.5	86.6	48	63.5	4	9	270	0.00	29.878 
16:25	85.9	85.9	87.2	48	63.9	3	6	270	0.00	29.878 
16:30	86.1	86.1	87.2	47	63.5	2	5	270	0.00	29.876 
16:35	86.1	86.1	87.2	47	63.5	3	9	248	0.00	29.876 
16:40	86.3	86.3	87.0	45	62.4	4	9	270	0.00	29.876 
16:45	86.3	86.3	87.2	46	63.0	3	5	270	0.00	29.877 
16:50	86.3	86.3	87.2	46	63.0	3	7	270	0.00	29.877 
16:55	86.1	86.1	87.2	47	63.5	3	6	248	0.00	29.877 
17:00	86.3	86.3	87.5	47	63.7	3	5	270	0.00	29.875 
17:05	86.7	86.7	87.8	46	63.4	3	5	270	0.00	29.875 
17:10	86.7	86.7	87.5	45	62.8	3	9	248	0.00	29.875 
17:15	86.1	86.1	87.0	46	62.9	4	7	248	0.00	29.871 
17:20	86.1	86.1	87.0	46	62.9	3	6	248	0.00	29.871 
17:25	85.7	85.7	86.7	47	63.1	5	9	270	0.00	29.871 
17:30	85.5	85.5	86.4	47	62.9	4	7	248	0.00	29.869 
17:35	85.1	85.1	85.9	47	62.6	4	9	270	0.00	29.869 
17:40	84.9	84.9	86.3	50	64.2	3	6	248	0.00	29.869 
17:45	84.9	84.9	86.1	49	63.6	3	7	270	0.00	29.866 
17:50	84.9	84.9	85.8	48	63.0	4	10	248	0.00	29.866 
17:55	84.7	84.7	85.8	49	63.4	3	7	270	0.00	29.866 
18:00	84.7	84.7	85.6	48	62.8	4	10	248	0.00	29.861 
18:05	84.3	84.3	85.3	49	63.0	4	12	248	0.00	29.861 
18:10	84.1	84.1	85.3	50	63.4	3	10	270	0.00	29.861 
18:15	84.0	84.0	85.1	50	63.3	4	9	270	0.00	29.861 
18:20	83.6	83.6	84.6	50	63.0	3	7	270	0.00	29.861 
18:25	83.2	83.2	84.3	51	63.2	4	12	248	0.00	29.861 
18:30	83.0	83.0	84.3	52	63.5	4	10	270	0.00	29.860 
18:35	83.4	83.4	84.4	50	62.8	4	10	270	0.00	29.860 
18:40	83.4	83.4	84.6	51	63.3	3	7	248	0.00	29.860 
18:45	83.6	83.6	84.8	51	63.5	2	5	248	0.00	29.857 
18:50	83.6	83.6	84.6	50	63.0	3	9	248	0.00	29.857 
18:55	83.4	83.4	84.4	50	62.8	4	10	248	0.00	29.857 
19:00	83.4	83.4	84.6	51	63.3	3	6	248	0.00	29.853 
19:05	83.2	83.2	84.5	52	63.7	3	7	270	0.00	29.853 
19:10	83.0	83.0	84.3	52	63.5	3	11	270	0.00	29.853 
19:15	82.8	82.8	84.0	52	63.3	4	10	270	0.00	29.852 
19:20	82.8	82.8	84.0	52	63.3	3	10	270	0.00	29.852 
19:25	82.6	82.6	84.0	53	63.7	2	5	248	0.00	29.852 
19:30	82.4	82.4	83.9	54	64.1	3	7	248	0.00	29.857 
19:35	82.2	82.2	83.5	53	63.3	4	6	270	0.00	29.857 
19:40	82.2	82.2	83.6	54	63.9	3	13	270	0.00	29.857 
19:45	82.0	82.0	83.4	54	63.7	2	5	248	0.00	29.858 
19:50	81.8	81.8	83.3	55	64.0	2	6	248	0.00	29.858 
19:55	81.8	81.8	83.2	54	63.5	2	6	248	0.00	29.858 
20:00	81.8	81.8	83.2	54	63.5	2	4	248	0.00	29.861 
20:05	81.8	81.8	83.3	55	64.0	2	4	248	0.00	29.861 
20:10	81.4	81.4	82.8	55	63.7	3	9	248	0.00	29.861 
20:15	81.2	81.2	82.7	56	64.0	2	7	248	0.00	29.857 
20:20	81.2	81.2	82.6	55	63.5	3	6	270	0.00	29.857 
20:25	81.1	81.1	82.5	55	63.4	2	4	270	0.00	29.857 
20:30	80.9	80.9	82.3	55	63.2	3	6	248	0.00	29.862 
20:35	80.7	80.7	82.2	56	63.5	2	6	248	0.00	29.862 
20:40	80.5	80.5	81.9	56	63.3	2	5	248	0.00	29.862 
20:45	80.5	80.5	82.1	57	63.8	2	4	270	0.00	29.867 
20:50	80.3	80.3	81.8	57	63.7	2	4	248	0.00	29.867 
20:55	80.1	80.1	81.7	58	64.0	2	5	248	0.00	29.867 
21:00	79.9	79.9	81.5	58	63.8	1	6	248	0.00	29.875 
21:05	79.9	79.9	81.5	58	63.8	1	3	248	0.00	29.875 
21:10	79.8	79.8	81.5	59	64.2	1	3	248	0.00	29.875 
21:15	79.6	79.6	81.3	59	64.0	0	2	248	0.00	29.878 
21:20	79.4	79.4	81.1	60	64.3	1	4	248	0.00	29.878 
21:25	79.4	79.4	81.1	60	64.3	1	3	248	0.00	29.878 
21:30	79.2	79.2	80.9	60	64.1	1	3	248	0.00	29.884 
21:35	79.2	79.2	81.0	61	64.6	1	4	248	0.00	29.884 
21:40	79.0	79.0	80.8	61	64.4	1	3	248	0.00	29.884 
21:45	78.8	78.8	80.6	62	64.7	1	3	248	0.00	29.885 
21:50	78.6	78.6	80.4	62	64.5	1	3	248	0.00	29.885 
21:55	78.6	78.6	80.4	62	64.5	1	3	248	0.00	29.885 
22:00	78.5	78.5	80.3	62	64.4	0	2	248	0.00	29.886 
22:05	78.1	78.1	79.9	63	64.5	0	3	248	0.00	29.886 
22:10	77.9	77.9	79.7	64	64.7	1	2	248	0.00	29.886 
22:15	77.9	77.9	79.7	63	64.3	1	3	248	0.00	29.888 
22:20	77.9	77.9	79.7	63	64.3	1	3	248	0.00	29.888 
22:25	77.7	77.7	79.5	64	64.5	1	3	248	0.00	29.888 
22:30	77.6	77.6	79.4	64	64.4	1	3	248	0.00	29.891 
22:35	77.6	77.6	79.4	64	64.4	1	2	248	0.00	29.891 
22:40	77.6	77.6	79.4	64	64.4	1	3	248	0.00	29.891 
22:45	77.4	77.4	79.2	65	64.7	0	3	248	0.00	29.889 
22:50	77.2	77.2	79.0	65	64.5	0	2	248	0.00	29.889 
22:55	77.2	77.2	79.0	65	64.5	1	3	248	0.00	29.889 
23:00	77.2	77.2	79.0	65	64.5	1	2	248	0.00	29.892 
23:05	77.2	77.2	79.0	65	64.5	1	3	248	0.00	29.892 
23:10	77.0	77.0	78.8	65	64.3	1	4	248	0.00	29.892 
23:15	77.0	77.0	78.8	66	64.8	1	3	225	0.00	29.897 
23:20	76.8	76.8	78.6	66	64.6	0	2	248	0.00	29.897 
23:25	76.8	76.8	78.6	66	64.6	1	3	248	0.00	29.897 
23:30	76.7	76.7	78.5	67	64.9	1	3	248	0.00	29.896 
23:35	76.5	76.5	78.3	67	64.7	1	3	248	0.00	29.896 
23:40	76.3	76.3	78.0	68	64.9	0	2	248	0.00	29.896 
23:45	76.1	76.1	77.8	68	64.8	1	3	248	0.00	29.893 
23:50	76.0	76.0	77.7	68	64.7	1	2	270	0.00	29.893 
23:55	75.8	75.8	77.6	68	64.5	1	3	270	0.00	29.893 

CoCoRaHS
IN-AL-39
A2 Web Hosting
Creative Commons License
GoDaddy
Look for:

loaded 2017-12-13 15:53:35 • last modified 2010-11-18 10:43:29
Privacy PolicyDisclaimer
• wx.awcolley.com is powered by PmWiki v.2002016 •
• all content (unless otherwise noted) © 2017 A W Colley